createdAt,value
2018-05-31T00:00:31.779Z,9.50
2018-05-31T00:03:00.066Z,10.07
2018-05-31T00:05:28.371Z,9.47
2018-05-31T00:07:56.756Z,9.70
2018-05-31T00:10:25.029Z,9.40
2018-05-31T00:12:54.239Z,10.33
2018-05-31T00:15:23.281Z,9.70
2018-05-31T00:17:51.565Z,10.23
2018-05-31T00:20:19.945Z,9.83
2018-05-31T00:22:48.268Z,10.40
2018-05-31T00:25:16.558Z,9.30
2018-05-31T00:27:44.816Z,9.73
2018-05-31T00:30:13.100Z,9.73
2018-05-31T00:32:41.489Z,9.80
2018-05-31T00:35:10.558Z,10.37
2018-05-31T00:37:38.823Z,10.40
2018-05-31T00:40:07.186Z,10.23
2018-05-31T00:42:35.466Z,10.10
2018-05-31T00:45:04.494Z,9.73
2018-05-31T00:47:32.768Z,9.13
2018-05-31T00:50:01.787Z,9.63
2018-05-31T00:52:30.065Z,9.97
2018-05-31T00:54:59.099Z,9.83
2018-05-31T00:57:27.371Z,9.37
2018-05-31T00:59:55.623Z,10.23
2018-05-31T01:02:24.765Z,10.20
2018-05-31T01:04:53.812Z,10.20
2018-05-31T01:07:22.162Z,10.73
2018-05-31T01:09:50.456Z,10.17
2018-05-31T01:12:19.545Z,10.10
2018-05-31T01:14:48.608Z,9.57
2018-05-31T01:17:16.977Z,9.80
2018-05-31T01:19:45.278Z,9.70
2018-05-31T01:22:13.739Z,9.03
2018-05-31T01:24:42.778Z,9.80
2018-05-31T01:27:11.161Z,10.83
2018-05-31T01:29:39.452Z,10.30
2018-05-31T01:32:08.613Z,10.23
2018-05-31T01:34:36.851Z,10.63
2018-05-31T01:37:05.138Z,13.30
2018-05-31T01:39:33.469Z,12.13
2018-05-31T01:42:01.833Z,11.73
2018-05-31T01:44:30.218Z,12.90
2018-05-31T01:46:58.511Z,12.10
2018-05-31T01:49:26.770Z,11.25
2018-05-31T01:51:55.815Z,11.63
2018-05-31T01:54:24.104Z,11.27
2018-05-31T01:56:52.373Z,12.10
2018-05-31T01:59:21.597Z,12.03
2018-05-31T02:01:49.975Z,11.80
2018-05-31T02:04:19.102Z,12.17
2018-05-31T02:06:47.391Z,13.20
2018-05-31T02:09:15.676Z,12.43
2018-05-31T02:11:43.969Z,12.77
2018-05-31T02:14:12.275Z,13.20
2018-05-31T02:16:40.541Z,13.00
2018-05-31T02:19:08.815Z,13.40
2018-05-31T02:21:37.849Z,13.03
2018-05-31T02:24:06.241Z,13.07
2018-05-31T02:26:34.632Z,13.53
2018-05-31T02:29:02.923Z,13.40
2018-05-31T02:31:31.219Z,13.20
2018-05-31T02:33:59.476Z,12.90
2018-05-31T02:36:27.791Z,13.50
2018-05-31T02:38:56.188Z,12.83
2018-05-31T02:41:24.469Z,12.27
2018-05-31T02:43:53.491Z,13.07
2018-05-31T02:46:21.780Z,12.97
2018-05-31T02:48:50.176Z,12.77
2018-05-31T02:51:18.476Z,12.63
2018-05-31T02:53:46.767Z,12.07
2018-05-31T02:56:15.121Z,11.90
2018-05-31T02:58:44.229Z,11.83
2018-05-31T03:01:13.338Z,12.37
2018-05-31T03:03:42.472Z,11.43
2018-05-31T03:06:10.742Z,12.57
2018-05-31T03:08:39.827Z,12.93
2018-05-31T03:11:09.593Z,13.57
2018-05-31T03:13:37.868Z,14.73
2018-05-31T03:16:06.919Z,14.60
2018-05-31T03:18:35.285Z,14.00
2018-05-31T03:21:03.576Z,14.63
2018-05-31T03:23:31.872Z,14.27
2018-05-31T03:26:00.255Z,14.77
2018-05-31T03:28:28.535Z,15.80
2018-05-31T03:30:57.589Z,14.47
2018-05-31T03:33:25.866Z,16.43
2018-05-31T03:35:54.141Z,14.87
2018-05-31T03:38:22.438Z,15.53
2018-05-31T03:40:50.688Z,16.00
2018-05-31T03:43:19.727Z,15.07
2018-05-31T03:45:48.013Z,14.93
2018-05-31T03:48:16.289Z,14.40
2018-05-31T03:50:45.334Z,13.97
2018-05-31T03:53:13.808Z,13.27
2018-05-31T03:55:42.119Z,11.83
2018-05-31T03:58:10.421Z,10.97
2018-05-31T04:01:03.892Z,9.83
2018-05-31T04:03:32.240Z,8.60
2018-05-31T04:06:01.266Z,8.87
2018-05-31T04:08:30.410Z,7.70
2018-05-31T04:10:58.773Z,8.43
2018-05-31T04:13:27.042Z,8.03
2018-05-31T04:15:56.071Z,7.17
2018-05-31T04:18:24.461Z,7.17
2018-05-31T04:20:52.752Z,7.37
2018-05-31T04:23:21.041Z,7.27
2018-05-31T04:25:49.338Z,7.17
2018-05-31T04:28:17.619Z,7.80
2018-05-31T04:30:45.901Z,7.47
2018-05-31T04:33:14.937Z,6.83
2018-05-31T04:35:43.209Z,6.50
2018-05-31T04:38:11.498Z,6.03
2018-05-31T04:40:39.742Z,6.50
2018-05-31T04:43:09.577Z,6.10
2018-05-31T04:45:38.650Z,6.33
2018-05-31T04:48:06.921Z,6.97
2018-05-31T04:50:35.311Z,7.47
2018-05-31T04:53:03.576Z,7.03
2018-05-31T04:55:32.605Z,6.87
2018-05-31T04:58:00.892Z,6.95
2018-05-31T05:00:29.188Z,5.60
2018-05-31T05:02:57.510Z,6.43
2018-05-31T05:05:25.765Z,5.43
2018-05-31T05:07:54.061Z,5.57
2018-05-31T05:10:22.346Z,5.60
2018-05-31T05:12:50.614Z,4.93
2018-05-31T05:15:19.750Z,5.10
2018-05-31T05:17:49.349Z,5.17
2018-05-31T05:20:21.253Z,4.57
2018-05-31T05:22:49.695Z,4.97
2018-05-31T05:25:20.430Z,3.80
2018-05-31T05:27:50.943Z,4.50
2018-05-31T05:30:21.387Z,3.63
2018-05-31T05:32:50.440Z,3.40
2018-05-31T05:35:18.769Z,3.30
2018-05-31T05:37:47.047Z,3.30
2018-05-31T05:40:16.313Z,3.15
2018-05-31T05:42:44.603Z,3.50
2018-05-31T05:45:12.962Z,3.27
2018-05-31T05:47:41.243Z,3.20
2018-05-31T05:50:09.534Z,3.60
2018-05-31T05:52:37.781Z,3.60
2018-05-31T05:55:06.054Z,3.33
2018-05-31T05:57:34.330Z,3.73
2018-05-31T06:00:02.581Z,3.03
2018-05-31T06:02:31.707Z,3.60
2018-05-31T06:04:59.997Z,3.73
2018-05-31T06:07:28.284Z,3.57
2018-05-31T06:09:56.616Z,3.33
2018-05-31T06:12:25.613Z,3.50
2018-05-31T06:14:53.868Z,3.33
2018-05-31T06:17:22.145Z,3.17
2018-05-31T06:19:51.286Z,3.37
2018-05-31T06:22:19.715Z,3.20
2018-05-31T06:24:48.165Z,3.37
2018-05-31T06:27:16.419Z,3.00
2018-05-31T06:29:45.590Z,3.20
2018-05-31T06:32:13.887Z,2.90
2018-05-31T06:34:42.269Z,3.50
2018-05-31T06:37:10.556Z,3.70
2018-05-31T06:39:38.911Z,3.03
2018-05-31T06:42:07.963Z,3.13
2018-05-31T06:44:36.233Z,2.57
2018-05-31T06:47:04.491Z,2.60
2018-05-31T06:49:33.626Z,2.60
2018-05-31T06:52:01.990Z,2.80
2018-05-31T06:54:30.277Z,2.10
2018-05-31T06:56:58.543Z,2.50
2018-05-31T06:59:26.803Z,2.03
2018-05-31T07:01:55.098Z,2.50
2018-05-31T07:04:23.365Z,2.53
2018-05-31T07:06:52.477Z,2.23
2018-05-31T07:09:20.770Z,2.50
2018-05-31T07:11:49.066Z,2.80
2018-05-31T07:14:17.470Z,2.20
2018-05-31T07:16:45.812Z,2.47
2018-05-31T07:19:14.854Z,2.30
2018-05-31T07:21:43.185Z,2.27
2018-05-31T07:24:11.595Z,2.90
2018-05-31T07:26:39.926Z,2.60
2018-05-31T07:29:08.353Z,2.43
2018-05-31T07:31:36.638Z,2.50
2018-05-31T07:34:04.910Z,2.40
2018-05-31T07:36:33.295Z,2.70
2018-05-31T07:39:01.584Z,2.33
2018-05-31T07:41:29.839Z,2.53
2018-05-31T07:43:58.314Z,2.60
2018-05-31T07:46:26.588Z,2.53
2018-05-31T07:48:54.976Z,2.13
2018-05-31T07:51:23.653Z,2.90
2018-05-31T07:53:51.946Z,3.00
2018-05-31T07:56:21.160Z,2.70
2018-05-31T07:58:49.430Z,2.63
2018-05-31T08:01:17.836Z,3.47
2018-05-31T08:03:46.092Z,2.60
2018-05-31T08:06:15.237Z,2.57
2018-05-31T08:08:43.505Z,2.67
2018-05-31T08:11:12.555Z,2.63
2018-05-31T08:13:41.347Z,2.50
2018-05-31T08:16:09.831Z,2.80
2018-05-31T08:18:38.110Z,2.97
2018-05-31T08:21:08.150Z,2.97
2018-05-31T08:23:37.179Z,2.83
2018-05-31T08:26:05.444Z,2.70
2018-05-31T08:28:33.840Z,2.50
2018-05-31T08:31:02.119Z,2.37
2018-05-31T08:33:31.148Z,3.20
2018-05-31T08:35:59.429Z,2.70
2018-05-31T08:38:27.715Z,2.50
2018-05-31T08:40:59.685Z,2.70
2018-05-31T08:43:28.563Z,3.10
2018-05-31T08:45:59.492Z,3.30
2018-05-31T08:48:31.380Z,3.20
2018-05-31T08:50:59.942Z,2.97
2018-05-31T08:53:28.206Z,2.73
2018-05-31T08:55:56.607Z,3.17
2018-05-31T08:58:25.617Z,3.10
2018-05-31T09:00:53.911Z,2.50
2018-05-31T09:03:22.192Z,3.10
2018-05-31T09:05:51.222Z,2.67
2018-05-31T09:08:19.523Z,3.03
2018-05-31T09:10:47.987Z,3.20
2018-05-31T09:13:16.240Z,2.70
2018-05-31T09:15:44.494Z,3.37
2018-05-31T09:18:12.963Z,2.90
2018-05-31T09:20:41.350Z,3.03
2018-05-31T09:23:10.411Z,5.15
2018-05-31T09:25:38.752Z,3.20
2018-05-31T09:28:07.852Z,2.77
2018-05-31T09:30:36.894Z,3.37
2018-05-31T09:33:05.168Z,3.03
2018-05-31T09:35:33.447Z,2.90
2018-05-31T09:38:02.763Z,3.33
2018-05-31T09:40:31.177Z,2.90
2018-05-31T09:42:59.446Z,2.93
2018-05-31T09:45:28.475Z,2.70
2018-05-31T09:47:56.757Z,3.00
2018-05-31T09:50:25.033Z,2.77
2018-05-31T09:52:54.058Z,2.73
2018-05-31T09:55:22.352Z,2.60
2018-05-31T09:57:51.402Z,3.00
2018-05-31T10:00:19.753Z,2.73
2018-05-31T10:02:48.822Z,2.53
2018-05-31T10:05:17.119Z,2.77
2018-05-31T10:07:46.160Z,2.67
2018-05-31T10:10:14.541Z,2.87
2018-05-31T10:12:42.818Z,3.10
2018-05-31T10:15:11.846Z,2.63
2018-05-31T10:17:40.108Z,3.17
2018-05-31T10:20:08.363Z,3.60
2018-05-31T10:22:36.692Z,2.90
2018-05-31T10:25:05.750Z,2.87
2018-05-31T10:27:34.099Z,3.17
2018-05-31T10:30:03.297Z,2.60
2018-05-31T10:32:32.419Z,2.83
2018-05-31T10:35:01.440Z,3.00
2018-05-31T10:37:29.706Z,4.83
2018-05-31T10:39:58.754Z,3.27
2018-05-31T10:42:27.020Z,2.77
2018-05-31T10:44:55.286Z,2.90
2018-05-31T10:47:24.315Z,3.00
2018-05-31T10:49:52.712Z,3.10
2018-05-31T10:52:21.026Z,2.50
2018-05-31T10:54:49.326Z,3.30
2018-05-31T10:57:17.652Z,2.80
2018-05-31T10:59:45.987Z,3.10
2018-05-31T11:02:14.267Z,3.00
2018-05-31T11:04:42.532Z,2.93
2018-05-31T11:07:11.667Z,2.80
2018-05-31T11:09:39.940Z,2.57
2018-05-31T11:12:08.963Z,3.27
2018-05-31T11:14:37.240Z,4.20
2018-05-31T11:17:06.357Z,3.23
2018-05-31T11:19:35.390Z,2.80
2018-05-31T11:22:03.648Z,3.00
2018-05-31T11:24:32.679Z,3.40
2018-05-31T11:27:00.955Z,3.13
2018-05-31T11:29:29.986Z,3.37
2018-05-31T11:31:58.273Z,3.40
2018-05-31T11:34:26.652Z,3.23
2018-05-31T11:36:54.908Z,3.17
2018-05-31T11:39:23.189Z,3.17
2018-05-31T11:41:51.458Z,2.80
2018-05-31T11:44:22.095Z,3.80
2018-05-31T11:46:50.357Z,3.70
2018-05-31T11:49:18.649Z,3.60
2018-05-31T11:51:46.933Z,4.72
2018-05-31T11:54:15.246Z,3.97
2018-05-31T11:56:43.513Z,3.57
2018-05-31T11:59:11.811Z,3.10
2018-05-31T12:01:40.143Z,3.47
2018-05-31T12:04:08.402Z,3.43
2018-05-31T12:06:36.659Z,3.67
2018-05-31T12:09:06.414Z,3.60
2018-05-31T12:11:34.671Z,3.63
2018-05-31T12:14:03.693Z,3.13
2018-05-31T12:16:31.978Z,4.13
2018-05-31T12:19:01.097Z,4.10
2018-05-31T12:21:29.355Z,4.00
2018-05-31T12:23:57.631Z,3.43
2018-05-31T12:26:25.909Z,3.73
2018-05-31T12:28:54.174Z,4.50
2018-05-31T12:31:22.464Z,4.47
2018-05-31T12:33:50.744Z,4.43
2018-05-31T12:36:19.030Z,3.97
2018-05-31T12:38:47.310Z,4.43
2018-05-31T12:41:16.367Z,4.60
2018-05-31T12:43:44.725Z,3.90
2018-05-31T12:46:13.015Z,4.67
2018-05-31T12:48:42.065Z,4.97
2018-05-31T12:51:11.093Z,3.87
2018-05-31T12:53:39.415Z,4.65
2018-05-31T12:56:07.627Z,4.67
2018-05-31T12:58:35.905Z,4.77
2018-05-31T13:01:05.207Z,5.67
2018-05-31T13:03:34.242Z,5.40
2018-05-31T13:06:02.611Z,5.57
2018-05-31T13:08:30.819Z,5.83
2018-05-31T13:10:59.187Z,6.00
2018-05-31T13:13:28.629Z,5.87
2018-05-31T13:15:56.917Z,8.30
2018-05-31T13:18:25.173Z,6.90
2018-05-31T13:20:54.233Z,7.77
2018-05-31T13:23:22.515Z,6.37
2018-05-31T13:25:50.785Z,6.20
2018-05-31T13:28:19.066Z,6.03
2018-05-31T13:30:49.384Z,6.90
2018-05-31T13:33:18.624Z,7.10
2018-05-31T13:35:46.893Z,5.80
2018-05-31T13:38:15.193Z,7.57
2018-05-31T13:40:43.449Z,6.47
2018-05-31T13:43:11.725Z,7.43
2018-05-31T13:45:39.990Z,7.77
2018-05-31T13:48:08.243Z,6.57
2018-05-31T13:50:37.277Z,6.10
2018-05-31T13:53:05.590Z,6.60
2018-05-31T13:55:33.850Z,6.87
2018-05-31T13:58:02.235Z,6.40
2018-05-31T14:00:30.522Z,7.03
2018-05-31T14:02:59.634Z,6.50
2018-05-31T14:05:27.923Z,6.97
2018-05-31T14:07:56.971Z,6.90
2018-05-31T14:10:25.235Z,5.73
2018-05-31T14:12:53.499Z,6.53
2018-05-31T14:15:22.550Z,6.80
2018-05-31T14:17:50.840Z,7.03
2018-05-31T14:20:19.101Z,6.90
2018-05-31T14:22:47.395Z,6.40
2018-05-31T14:25:15.678Z,6.43
2018-05-31T14:27:43.957Z,6.67
2018-05-31T14:30:14.250Z,8.03
2018-05-31T14:32:43.304Z,6.33
2018-05-31T14:35:12.428Z,5.20
2018-05-31T14:37:40.701Z,5.27
2018-05-31T14:40:09.726Z,5.13
2018-05-31T14:42:37.997Z,5.90
2018-05-31T14:45:07.024Z,5.80
2018-05-31T14:47:35.293Z,6.43
2018-05-31T14:50:04.302Z,5.67
2018-05-31T14:52:33.358Z,6.73
2018-05-31T14:55:01.638Z,5.33
2018-05-31T14:57:29.913Z,5.87
2018-05-31T14:59:58.199Z,7.57
2018-05-31T15:02:26.502Z,6.53
2018-05-31T15:04:54.743Z,5.93
2018-05-31T15:07:23.061Z,6.30
2018-05-31T15:09:52.081Z,5.90
2018-05-31T15:12:20.354Z,5.60
2018-05-31T15:14:49.385Z,5.60
2018-05-31T15:17:17.661Z,6.30
2018-05-31T15:19:46.703Z,5.50
2018-05-31T15:22:14.991Z,6.10
2018-05-31T15:24:43.281Z,5.80
2018-05-31T15:27:11.559Z,5.63
2018-05-31T15:29:39.858Z,6.20
2018-05-31T15:32:08.197Z,4.90
2018-05-31T15:34:36.488Z,5.77
2018-05-31T15:37:05.521Z,6.43
2018-05-31T15:39:33.808Z,5.90
2018-05-31T15:42:02.847Z,5.27
2018-05-31T15:44:31.174Z,5.20
2018-05-31T15:46:59.439Z,5.63
2018-05-31T15:49:28.499Z,5.68
2018-05-31T15:51:57.545Z,5.37
2018-05-31T15:54:25.857Z,5.60
2018-05-31T15:56:54.175Z,5.20
2018-05-31T15:59:22.432Z,5.40
2018-05-31T16:01:50.695Z,5.40
2018-05-31T16:04:18.971Z,6.87
2018-05-31T16:06:47.393Z,6.53
2018-05-31T16:09:15.656Z,5.53
2018-05-31T16:11:44.241Z,5.63
2018-05-31T16:14:12.499Z,13.30
2018-05-31T16:16:42.782Z,5.62
2018-05-31T16:19:11.041Z,4.70
2018-05-31T16:21:40.173Z,4.67
2018-05-31T16:24:09.199Z,5.97
2018-05-31T16:26:37.476Z,5.27
2018-05-31T16:29:05.745Z,5.57
2018-05-31T16:31:34.771Z,5.50
2018-05-31T16:34:03.062Z,5.23
2018-05-31T16:36:31.348Z,6.97
2018-05-31T16:38:59.621Z,6.10
2018-05-31T16:41:28.647Z,6.83
2018-05-31T16:43:56.918Z,6.50
2018-05-31T16:46:25.942Z,8.33
2018-05-31T16:48:54.193Z,8.50
2018-05-31T16:51:22.497Z,9.20
2018-05-31T16:53:50.784Z,8.40
2018-05-31T16:56:19.055Z,8.20
2018-05-31T16:58:47.420Z,7.20
2018-05-31T17:01:16.423Z,6.60
2018-05-31T17:03:44.698Z,6.67
2018-05-31T17:06:12.954Z,7.00
2018-05-31T17:08:41.248Z,5.90
2018-05-31T17:11:10.314Z,5.57
2018-05-31T17:13:38.618Z,4.90
2018-05-31T17:16:06.879Z,5.20
2018-05-31T17:18:35.158Z,6.03
2018-05-31T17:21:03.429Z,5.82
2018-05-31T17:23:32.453Z,6.03
2018-05-31T17:26:00.742Z,6.47
2018-05-31T17:28:29.056Z,6.03
2018-05-31T17:30:57.307Z,5.37
2018-05-31T17:33:25.619Z,5.43
2018-05-31T17:35:54.006Z,5.75
2018-05-31T17:38:23.115Z,5.67
2018-05-31T17:40:52.164Z,5.40
2018-05-31T17:43:21.236Z,5.93
2018-05-31T17:45:49.520Z,6.97
2018-05-31T17:48:17.794Z,9.60
2018-05-31T17:50:46.833Z,9.80
2018-05-31T17:53:16.107Z,9.07
2018-05-31T17:55:45.170Z,9.37
2018-05-31T17:58:13.536Z,8.63
2018-05-31T18:00:41.797Z,7.63
2018-05-31T18:03:10.822Z,10.63
2018-05-31T18:05:39.105Z,8.13
2018-05-31T18:08:08.232Z,10.57
2018-05-31T18:10:37.345Z,10.30
2018-05-31T18:13:05.625Z,9.60
2018-05-31T18:15:33.955Z,8.30
2018-05-31T18:18:02.416Z,10.85
2018-05-31T18:20:31.536Z,9.53
2018-05-31T18:22:59.809Z,9.90
2018-05-31T18:25:28.067Z,9.90
2018-05-31T18:27:57.122Z,11.27
2018-05-31T18:30:25.387Z,7.87
2018-05-31T18:32:54.423Z,9.23
2018-05-31T18:35:22.805Z,9.23
2018-05-31T18:37:51.851Z,9.33
2018-05-31T18:40:20.145Z,9.17
2018-05-31T18:42:48.438Z,8.80
2018-05-31T18:45:16.718Z,12.40
2018-05-31T18:47:45.093Z,9.67
2018-05-31T18:50:13.467Z,17.17
2018-05-31T18:52:42.486Z,11.37
2018-05-31T18:55:10.851Z,12.27
2018-05-31T18:57:39.900Z,10.87
2018-05-31T19:00:08.166Z,11.47
2018-05-31T19:02:36.440Z,13.47
2018-05-31T19:05:05.497Z,12.67
2018-05-31T19:07:33.755Z,10.70
2018-05-31T19:10:02.037Z,11.63
2018-05-31T19:12:35.836Z,11.27
2018-05-31T19:15:04.882Z,10.30
2018-05-31T19:17:33.249Z,11.87
2018-05-31T19:20:02.307Z,10.23
2018-05-31T19:22:30.582Z,11.90
2018-05-31T19:25:04.381Z,11.87
2018-05-31T19:27:33.475Z,13.00
2018-05-31T19:30:08.232Z,13.73
2018-05-31T19:32:37.256Z,15.93
2018-05-31T19:35:05.564Z,11.03
2018-05-31T19:37:33.930Z,12.13
2018-05-31T19:40:02.210Z,12.13
2018-05-31T19:42:36.026Z,10.27
2018-05-31T19:45:05.069Z,10.83
2018-05-31T19:47:33.422Z,10.57
2018-05-31T19:50:02.477Z,11.07
2018-05-31T19:52:37.121Z,11.07
2018-05-31T19:55:05.432Z,10.67
2018-05-31T20:00:42.502Z,10.80
2018-05-31T20:03:16.442Z,10.50
2018-05-31T20:05:44.794Z,11.80
2018-05-31T20:08:13.980Z,11.20
2018-05-31T20:10:42.436Z,11.23
2018-05-31T20:13:10.715Z,15.00
2018-05-31T20:15:39.014Z,11.40
2018-05-31T20:18:07.280Z,12.15
2018-05-31T20:20:36.391Z,11.10
2018-05-31T20:23:05.526Z,12.50
2018-05-31T20:25:33.839Z,12.57
2018-05-31T20:28:02.120Z,12.53
2018-05-31T20:30:30.484Z,12.53
2018-05-31T20:32:59.552Z,11.90
2018-05-31T20:35:27.862Z,11.47
2018-05-31T20:37:56.153Z,13.33
2018-05-31T20:40:24.505Z,14.90
2018-05-31T20:42:53.223Z,13.23
2018-05-31T20:45:21.582Z,13.40
2018-05-31T20:47:49.970Z,14.70
2018-05-31T20:50:18.355Z,14.33
2018-05-31T20:52:46.657Z,13.77
2018-05-31T20:55:15.036Z,15.30
2018-05-31T20:57:43.428Z,14.23
2018-05-31T21:00:11.688Z,15.60
2018-05-31T21:02:40.730Z,16.73
2018-05-31T21:05:09.028Z,17.48
2018-05-31T21:07:37.282Z,16.03
2018-05-31T21:10:06.341Z,14.17
2018-05-31T21:12:34.695Z,16.10
2018-05-31T21:15:03.734Z,14.63
2018-05-31T21:17:31.995Z,15.00
2018-05-31T21:20:00.351Z,15.20
2018-05-31T21:22:28.833Z,14.30
2018-05-31T21:24:57.188Z,15.37
2018-05-31T21:27:25.583Z,15.47
2018-05-31T21:29:53.915Z,15.37
2018-05-31T21:32:22.252Z,18.67
2018-05-31T21:34:51.388Z,14.87
2018-05-31T21:37:19.677Z,16.17
2018-05-31T21:39:47.942Z,15.07
2018-05-31T21:42:18.376Z,14.63
2018-05-31T21:44:47.693Z,16.07
2018-05-31T21:47:16.818Z,16.50
2018-05-31T21:49:45.866Z,15.67
2018-05-31T21:52:14.141Z,15.63
2018-05-31T21:54:42.401Z,15.10
2018-05-31T21:57:10.699Z,14.80
2018-05-31T21:59:39.813Z,15.63
2018-05-31T22:02:08.082Z,16.47
2018-05-31T22:04:37.294Z,16.23
2018-05-31T22:07:06.430Z,15.63
2018-05-31T22:09:34.694Z,18.33
2018-05-31T22:12:03.724Z,19.27
2018-05-31T22:14:32.010Z,18.70
2018-05-31T22:17:00.293Z,18.87
2018-05-31T22:19:28.589Z,18.90
2018-05-31T22:21:56.883Z,15.50
2018-05-31T22:24:28.787Z,16.53
2018-05-31T22:26:59.518Z,18.37
2018-05-31T22:29:28.908Z,19.53
2018-05-31T22:32:02.322Z,20.50
2018-05-31T22:34:31.439Z,19.60
2018-05-31T22:36:59.710Z,19.97
2018-05-31T22:39:28.760Z,20.17
2018-05-31T22:41:57.023Z,20.57
2018-05-31T22:44:25.287Z,17.87
2018-05-31T22:46:53.581Z,22.27
2018-05-31T22:49:21.839Z,20.03
2018-05-31T22:51:50.202Z,18.63
2018-05-31T22:54:18.487Z,19.37
2018-05-31T22:56:46.758Z,19.23
2018-05-31T22:59:15.799Z,19.73
2018-05-31T23:01:44.099Z,17.87
2018-05-31T23:04:12.378Z,17.77
2018-05-31T23:06:40.648Z,16.90
2018-05-31T23:09:08.956Z,17.57
2018-05-31T23:11:37.227Z,17.93
2018-05-31T23:14:05.505Z,17.90
2018-05-31T23:16:34.573Z,19.17
2018-05-31T23:19:02.815Z,17.47
2018-05-31T23:21:31.084Z,17.03
2018-05-31T23:24:00.426Z,17.33
2018-05-31T23:26:28.682Z,16.30
2018-05-31T23:28:56.939Z,16.70
2018-05-31T23:31:25.237Z,17.20
2018-05-31T23:33:53.510Z,15.73
2018-05-31T23:36:21.790Z,16.90
2018-05-31T23:38:50.076Z,15.53
2018-05-31T23:41:18.408Z,14.87
2018-05-31T23:43:46.735Z,16.13
2018-05-31T23:46:15.958Z,15.83
2018-05-31T23:48:44.258Z,15.23
2018-05-31T23:51:12.574Z,16.00
2018-05-31T23:53:40.867Z,17.03
2018-05-31T23:56:09.134Z,17.10
2018-05-31T23:58:37.413Z,16.70
